Terminal Aerodrome Forecast
Issued by NWS Cleveland, OH

Home | Current Version | Previous Version | Graphics & Text | Print | Product List | Glossary Off
Versions: 1 2 3 4 5 6 7 8 9 10 11 12 13

000
FTUS41 KCLE 270700 AAA
TAFTOL
TAF AMD
KTOL 270731Z 2708/2806 19005KT P6SM OVC035
      TEMPO 2708/2712 BKN030
     FM271300 22010KT P6SM OVC040
     FM271800 22010G20KT 6SM -RA OVC025
     FM272200 24009KT 6SM HZ OVC015
     FM280200 27010G15KT P6SM OVC025=

USA.gov is the U.S. government's official web portal to all federal, state and local government web resources and services.